Time;durP1;ratioP1;P1;durP2;ratioP2;P2;SDS_P1;SDS_P2;PMS_P1;PMS_P2;Temp;Humidity;BMP_temperature;BMP_pressure;BME280_temperature;BME280_humidity;BME280_pressure;Samples;Min_cycle;Max_cycle;Signal;HPM_P1;HPM_P2
2022/07/26 00:00:19;;;;;;;4.72;1.92;;;19.00;99.90;;;;;;5031407;28;20128;-58
2022/07/26 00:02:45;;;;;;;4.85;2.33;;;18.90;99.90;;;;;;5022841;28;20044;-56
2022/07/26 00:05:11;;;;;;;4.68;2.33;;;18.90;99.90;;;;;;5018688;28;20045;-57
2022/07/26 00:07:37;;;;;;;7.22;2.40;;;18.90;99.90;;;;;;5013991;28;20075;-58
2022/07/26 00:10:06;;;;;;;6.60;2.60;;;18.90;99.90;;;;;;5013335;28;20044;-56
2022/07/26 00:12:32;;;;;;;3.63;2.13;;;18.90;99.90;;;;;;5019674;28;20397;-57
2022/07/26 00:14:58;;;;;;;5.25;2.10;;;18.80;99.90;;;;;;5000820;28;20480;-56
2022/07/26 00:17:24;;;;;;;8.60;2.50;;;18.90;99.90;;;;;;5017129;28;20048;-58
2022/07/26 00:19:50;;;;;;;6.05;2.70;;;18.80;99.90;;;;;;5034847;28;20037;-58
2022/07/26 00:22:34;;;;;;;6.25;3.13;;;18.90;99.90;;;;;;5017589;28;20128;-58
2022/07/26 00:25:01;;;;;;;;;;;18.90;99.90;;;;;;5019830;28;20085;-57
2022/07/26 00:27:27;;;;;;;3.80;2.00;;;18.90;99.90;;;;;;5018170;28;19963;-58
2022/07/26 00:29:53;;;;;;;8.35;2.90;;;18.90;99.90;;;;;;4998897;28;20553;-58
2022/07/26 00:32:18;;;;;;;7.25;2.70;;;18.90;99.90;;;;;;4984362;28;20807;-57
2022/07/26 00:34:44;;;;;;;7.07;2.42;;;18.90;99.90;;;;;;5015193;28;20124;-57
2022/07/26 00:37:10;;;;;;;6.97;2.42;;;18.90;99.90;;;;;;5013273;28;20083;-57
2022/07/26 00:39:35;;;;;;;5.20;2.60;;;18.90;99.90;;;;;;5019864;28;20075;-58
2022/07/26 00:42:01;;;;;;;6.82;2.75;;;18.90;99.90;;;;;;5017513;28;20041;-58
2022/07/26 00:44:46;;;;;;;8.40;3.42;;;18.90;99.90;;;;;;5015260;28;20424;-57
2022/07/26 00:47:12;;;;;;;3.92;2.70;;;18.80;99.90;;;;;;5015306;28;20048;-56
2022/07/26 00:49:38;;;;;;;7.05;2.92;;;18.80;99.90;;;;;;5011224;28;20416;-58
2022/07/26 00:52:05;;;;;;;3.63;2.28;;;18.80;99.90;;;;;;5016383;28;20126;-57
2022/07/26 00:54:31;;;;;;;5.55;2.53;;;18.80;99.90;;;;;;5021470;28;20268;-58
2022/07/26 00:56:57;;;;;;;6.65;2.40;;;18.80;99.90;;;;;;5010805;28;20504;-57
2022/07/26 00:59:24;;;;;;;10.25;2.88;;;18.80;99.90;;;;;;5020554;28;20056;-57
2022/07/26 01:01:50;;;;;;;9.32;3.53;;;18.70;99.90;;;;;;5020840;28;20040;-56
2022/07/26 01:04:16;;;;;;;9.68;3.25;;;18.70;99.90;;;;;;5035078;28;20064;-57
2022/07/26 01:06:42;;;;;;;7.57;2.75;;;18.80;99.90;;;;;;4999481;28;20316;-58
2022/07/26 01:09:09;;;;;;;6.05;2.70;;;18.80;99.90;;;;;;5027618;28;20049;-57
2022/07/26 01:11:35;;;;;;;12.20;3.03;;;18.80;99.90;;;;;;5002695;28;20381;-57
2022/07/26 01:14:00;;;;;;;6.30;2.85;;;18.80;99.90;;;;;;5017118;28;20067;-57
2022/07/26 01:16:26;;;;;;;6.30;3.10;;;18.80;99.90;;;;;;4985037;28;20041;-58
2022/07/26 01:18:52;;;;;;;6.05;3.00;;;18.80;99.90;;;;;;5015853;28;20852;-58
2022/07/26 01:21:18;;;;;;;7.18;2.20;;;18.80;99.90;;;;;;5019378;28;20036;-57
2022/07/26 01:23:44;;;;;;;5.57;2.80;;;18.80;99.90;;;;;;5018037;28;20179;-58
2022/07/26 01:26:10;;;;;;;7.55;3.03;;;18.80;99.90;;;;;;5016500;28;20081;-57
2022/07/26 01:28:37;;;;;;;8.48;2.75;;;18.70;99.90;;;;;;5009845;28;20091;-58
2022/07/26 01:31:04;;;;;;;5.60;2.28;;;18.70;99.90;;;;;;5000895;28;20072;-58
2022/07/26 01:33:30;;;;;;;9.60;2.70;;;18.80;99.90;;;;;;5000326;28;20045;-58
2022/07/26 01:35:55;;;;;;;9.57;3.03;;;18.80;99.90;;;;;;5034450;28;20063;-58
2022/07/26 01:38:21;;;;;;;5.90;2.40;;;18.70;99.90;;;;;;5010862;28;20353;-58
2022/07/26 01:40:47;;;;;;;7.35;2.63;;;18.70;99.90;;;;;;5002218;28;20051;-58
2022/07/26 01:43:13;;;;;;;9.20;2.55;;;18.70;99.90;;;;;;5022710;28;20041;-58
2022/07/26 01:45:38;;;;;;;8.75;2.72;;;18.70;99.90;;;;;;5002872;28;20045;-58
2022/07/26 01:48:04;;;;;;;9.15;2.63;;;18.70;99.90;;;;;;5016083;28;20087;-58
2022/07/26 01:50:30;;;;;;;9.13;2.80;;;18.60;99.90;;;;;;5002442;28;20120;-58
2022/07/26 01:52:56;;;;;;;8.70;3.15;;;18.60;99.90;;;;;;5014927;28;20481;-58
2022/07/26 01:55:21;;;;;;;7.07;2.55;;;18.60;99.90;;;;;;5008847;28;20041;-57
2022/07/26 01:57:47;;;;;;;7.90;2.35;;;18.50;99.90;;;;;;5001113;28;20052;-57
2022/07/26 02:00:13;;;;;;;4.95;2.15;;;18.40;99.90;;;;;;5028017;28;20040;-57
2022/07/26 02:02:39;;;;;;;10.52;2.78;;;18.30;99.90;;;;;;5009873;28;20098;-58
2022/07/26 02:05:05;;;;;;;8.95;2.50;;;18.20;99.90;;;;;;5025301;28;20048;-58
2022/07/26 02:07:39;;;;;;;4.65;2.45;;;18.20;99.90;;;;;;5016083;28;20049;-57
2022/07/26 02:10:06;;;;;;;6.55;2.45;;;18.20;99.90;;;;;;5018584;28;20051;-57
2022/07/26 02:12:32;;;;;;;5.88;2.88;;;18.10;99.90;;;;;;5019349;28;20175;-58
2022/07/26 02:14:59;;;;;;;4.80;2.63;;;18.00;99.90;;;;;;5002438;28;20060;-58
2022/07/26 02:17:25;;;;;;;8.40;2.65;;;18.00;99.90;;;;;;5002574;28;20037;-58
2022/07/26 02:19:51;;;;;;;11.35;3.28;;;18.00;99.90;;;;;;5014926;28;20064;-58
2022/07/26 02:22:18;;;;;;;10.40;2.63;;;18.00;99.90;;;;;;5024529;28;20045;-58
2022/07/26 02:24:45;;;;;;;9.00;2.80;;;18.00;99.90;;;;;;5015138;28;20041;-57
2022/07/26 02:27:11;;;;;;;12.68;2.92;;;17.90;99.90;;;;;;5002104;28;20094;-57
2022/07/26 02:29:37;;;;;;;9.52;2.90;;;17.90;99.90;;;;;;5015275;28;20051;-57
2022/07/26 02:32:03;;;;;;;9.38;2.30;;;17.90;99.90;;;;;;5022591;28;20033;-57
2022/07/26 02:34:29;;;;;;;10.48;2.55;;;17.80;99.90;;;;;;5019363;28;20045;-58
2022/07/26 02:36:55;;;;;;;6.53;2.35;;;17.80;99.90;;;;;;5038959;28;20407;-58
2022/07/26 02:39:26;;;;;;;9.45;2.65;;;17.80;99.90;;;;;;5035852;28;20037;-58
2022/07/26 02:41:53;;;;;;;12.10;2.75;;;17.70;99.90;;;;;;5012463;28;20076;-57
2022/07/26 02:44:20;;;;;;;9.02;2.42;;;17.70;99.90;;;;;;5030737;28;20495;-58
2022/07/26 02:46:46;;;;;;;16.05;2.65;;;17.70;99.90;;;;;;5002574;28;20049;-57
2022/07/26 02:49:11;;;;;;;7.53;2.38;;;17.70;99.90;;;;;;5022457;28;20075;-56
2022/07/26 02:51:37;;;;;;;10.48;2.08;;;17.70;99.90;;;;;;5006846;28;20045;-56
2022/07/26 02:54:03;;;;;;;9.00;2.38;;;17.60;99.90;;;;;;5008991;28;20067;-58
2022/07/26 02:56:29;;;;;;;10.20;2.58;;;17.60;99.90;;;;;;5019337;28;20055;-58
2022/07/26 02:58:54;;;;;;;10.23;2.00;;;17.60;99.90;;;;;;5006335;28;20036;-58
2022/07/26 03:01:20;;;;;;;7.03;1.67;;;17.50;99.90;;;;;;5006283;28;20052;-57
2022/07/26 03:03:46;;;;;;;7.53;2.03;;;17.60;99.90;;;;;;5027131;28;20041;-58
2022/07/26 03:06:12;;;;;;;5.03;1.63;;;17.50;99.90;;;;;;5022031;28;20570;-57
2022/07/26 03:08:38;;;;;;;6.78;1.90;;;17.50;99.90;;;;;;4992035;28;20037;-57
2022/07/26 03:11:04;;;;;;;8.50;1.80;;;17.50;99.90;;;;;;5023012;28;20054;-55
2022/07/26 03:13:29;;;;;;;9.95;2.08;;;17.50;99.90;;;;;;5022790;28;20341;-57
2022/07/26 03:15:55;;;;;;;8.32;2.10;;;17.50;99.90;;;;;;5019767;28;20033;-56
2022/07/26 03:18:21;;;;;;;7.10;1.50;;;17.50;99.90;;;;;;5020561;28;20079;-57
2022/07/26 03:20:47;;;;;;;7.45;1.83;;;17.50;99.90;;;;;;5034519;28;20029;-55
2022/07/26 03:23:12;;;;;;;10.93;1.92;;;17.50;99.90;;;;;;5013292;28;20399;-56
2022/07/26 03:25:38;;;;;;;4.47;1.40;;;17.50;99.90;;;;;;4986569;28;20037;-57
2022/07/26 03:28:04;;;;;;;6.63;1.38;;;17.50;99.90;;;;;;5017597;28;20048;-58
2022/07/26 03:30:30;;;;;;;6.40;1.92;;;17.40;99.90;;;;;;5012581;28;20539;-57
2022/07/26 03:32:55;;;;;;;5.47;1.15;;;17.40;99.90;;;;;;5021727;28;20033;-56
2022/07/26 03:35:21;;;;;;;5.13;1.10;;;17.30;99.90;;;;;;5014691;28;20036;-57
2022/07/26 03:37:47;;;;;;;6.43;1.45;;;17.30;99.90;;;;;;5023553;28;20428;-57
2022/07/26 03:40:16;;;;;;;5.00;1.42;;;17.30;99.90;;;;;;5004623;28;20037;-56
2022/07/26 03:42:46;;;;;;;7.70;1.20;;;17.30;99.90;;;;;;5014140;28;20047;-57
2022/07/26 03:45:13;;;;;;;4.90;1.55;;;17.30;99.90;;;;;;5023791;28;20045;-57
2022/07/26 03:47:39;;;;;;;5.65;1.42;;;17.30;99.90;;;;;;5020426;28;20068;-57
2022/07/26 03:50:06;;;;;;;2.83;1.00;;;17.30;99.90;;;;;;5027231;28;20068;-57
2022/07/26 03:52:32;;;;;;;4.15;1.40;;;17.20;99.90;;;;;;5015510;28;20061;-57
2022/07/26 03:54:58;;;;;;;5.70;1.73;;;17.20;99.90;;;;;;5021771;28;20052;-57
2022/07/26 03:57:24;;;;;;;5.15;1.23;;;17.20;99.90;;;;;;5016548;28;20037;-57
2022/07/26 03:59:50;;;;;;;7.72;1.25;;;17.10;99.90;;;;;;5017943;28;20308;-56
2022/07/26 04:02:16;;;;;;;5.72;1.50;;;17.10;99.90;;;;;;5017407;28;20623;-56
2022/07/26 04:04:42;;;;;;;5.72;1.23;;;17.10;99.90;;;;;;5018182;28;20491;-57
2022/07/26 04:07:08;;;;;;;9.45;2.05;;;17.10;99.90;;;;;;5018105;28;20131;-56
2022/07/26 04:09:33;;;;;;;7.13;1.20;;;17.10;99.90;;;;;;5016903;28;20067;-54
2022/07/26 04:11:59;;;;;;;6.47;1.33;;;17.10;99.90;;;;;;5021719;28;20041;-56
2022/07/26 04:14:25;;;;;;;5.95;1.88;;;17.10;99.90;;;;;;4999392;28;20076;-57
2022/07/26 04:16:51;;;;;;;7.95;1.60;;;17.10;99.90;;;;;;5034186;28;20094;-57
2022/07/26 04:19:16;;;;;;;7.72;1.33;;;17.10;99.90;;;;;;5041031;28;20462;-57
2022/07/26 04:21:42;;;;;;;6.25;1.17;;;17.10;99.90;;;;;;5018141;28;20049;-57
2022/07/26 04:24:08;;;;;;;11.57;1.65;;;17.10;99.90;;;;;;5021375;28;20262;-57
2022/07/26 04:26:34;;;;;;;6.90;1.60;;;17.10;99.90;;;;;;5031563;23;20037;-62
2022/07/26 04:29:00;;;;;;;7.82;1.65;;;17.10;99.90;;;;;;5022544;28;20373;-61
2022/07/26 04:31:25;;;;;;;5.95;1.65;;;17.10;99.90;;;;;;5017536;28;20527;-61
2022/07/26 04:33:51;;;;;;;7.72;1.35;;;17.10;99.90;;;;;;5021047;28;20049;-64
2022/07/26 04:36:17;;;;;;;5.63;1.20;;;17.10;99.90;;;;;;5022956;28;20041;-64
2022/07/26 04:38:43;;;;;;;5.15;1.00;;;17.10;99.90;;;;;;5014720;28;20057;-64
2022/07/26 04:41:09;;;;;;;4.38;0.95;;;17.10;99.90;;;;;;5017343;28;20041;-61
2022/07/26 04:43:35;;;;;;;8.32;1.23;;;17.10;99.90;;;;;;5015282;28;20396;-62
2022/07/26 04:46:01;;;;;;;6.20;1.63;;;17.10;99.90;;;;;;5001070;28;20040;-62
2022/07/26 04:48:27;;;;;;;4.50;1.00;;;17.10;99.90;;;;;;5019436;28;20399;-63
2022/07/26 04:50:54;;;;;;;6.30;1.45;;;17.10;99.90;;;;;;5002544;28;20044;-62
2022/07/26 04:53:19;;;;;;;6.40;1.60;;;17.10;99.90;;;;;;5022187;28;20124;-63
2022/07/26 04:55:45;;;;;;;7.65;1.50;;;17.10;99.90;;;;;;5013672;28;20152;-65
2022/07/26 04:58:12;;;;;;;6.60;1.55;;;17.00;99.90;;;;;;5018296;28;20045;-62
2022/07/26 05:00:38;;;;;;;6.93;1.25;;;17.00;99.90;;;;;;5018134;28;20542;-64
2022/07/26 05:03:04;;;;;;;5.93;1.20;;;17.00;99.90;;;;;;5016153;28;20372;-63
2022/07/26 05:05:31;;;;;;;5.03;1.05;;;17.00;99.90;;;;;;5021465;28;20099;-62
2022/07/26 05:08:01;;;;;;;8.15;1.27;;;17.00;99.90;;;;;;5018713;28;20420;-63
2022/07/26 05:10:34;;;;;;;7.22;1.40;;;17.00;99.90;;;;;;5018452;28;20068;-63
2022/07/26 05:13:02;;;;;;;4.87;1.20;;;17.00;99.90;;;;;;5023506;28;20062;-63
2022/07/26 05:15:29;;;;;;;3.85;1.05;;;17.00;99.90;;;;;;5014774;28;20512;-64
2022/07/26 05:17:56;;;;;;;9.15;1.23;;;16.70;99.90;;;;;;5015740;28;20447;-64
2022/07/26 05:20:22;;;;;;;6.68;1.30;;;17.00;99.90;;;;;;5019305;28;20053;-63
2022/07/26 05:22:48;;;;;;;7.82;1.30;;;17.00;99.90;;;;;;5018832;28;20519;-62
2022/07/26 05:25:13;;;;;;;7.07;1.60;;;17.00;99.90;;;;;;5002279;28;20049;-62
2022/07/26 05:27:40;;;;;;;7.18;1.75;;;17.10;99.90;;;;;;5019067;28;20132;-63
2022/07/26 05:30:07;;;;;;;6.60;1.20;;;17.10;99.90;;;;;;5023752;28;20125;-62
2022/07/26 05:32:33;;;;;;;6.40;1.20;;;17.10;99.90;;;;;;5008809;28;20534;-63
2022/07/26 05:34:59;;;;;;;5.10;1.00;;;17.10;99.90;;;;;;5016569;28;20297;-62
2022/07/26 05:37:24;;;;;;;9.02;1.35;;;17.00;99.90;;;;;;5022011;28;20037;-63
2022/07/26 05:39:50;;;;;;;6.45;1.23;;;17.00;99.90;;;;;;5018054;28;20067;-64
2022/07/26 05:42:16;;;;;;;5.55;1.10;;;17.00;99.90;;;;;;5019627;28;20044;-62
2022/07/26 05:44:41;;;;;;;7.03;1.15;;;17.00;99.90;;;;;;5002647;28;20034;-63
2022/07/26 05:47:07;;;;;;;5.70;1.00;;;17.00;99.90;;;;;;5012446;28;20475;-64
2022/07/26 05:49:33;;;;;;;4.72;1.35;;;17.00;99.90;;;;;;5014585;28;20439;-62
2022/07/26 05:51:59;;;;;;;5.45;0.90;;;17.10;99.90;;;;;;5022596;28;20034;-62
2022/07/26 05:54:25;;;;;;;5.32;1.02;;;17.10;99.90;;;;;;5008974;28;20471;-65
2022/07/26 05:56:50;;;;;;;4.93;1.00;;;17.20;99.90;;;;;;5009767;28;20050;-62
2022/07/26 05:59:16;;;;;;;3.75;0.73;;;17.30;99.90;;;;;;5010620;28;20650;-63
2022/07/26 06:01:42;;;;;;;7.95;1.52;;;17.40;99.90;;;;;;5012306;28;20082;-65
2022/07/26 06:04:09;;;;;;;6.25;1.50;;;17.40;99.90;;;;;;5003142;28;20112;-62
2022/07/26 06:06:35;;;;;;;5.13;1.10;;;17.40;99.90;;;;;;5015432;28;20076;-64
2022/07/26 06:09:00;;;;;;;7.15;1.30;;;17.40;99.90;;;;;;5021775;28;20061;-63
2022/07/26 06:11:26;;;;;;;3.90;0.90;;;17.40;99.90;;;;;;5022756;28;20081;-66
2022/07/26 06:13:52;;;;;;;8.55;1.13;;;17.20;99.90;;;;;;5020398;28;20038;-63
2022/07/26 06:16:18;;;;;;;5.70;1.30;;;17.10;99.90;;;;;;5001120;28;20427;-63
2022/07/26 06:18:43;;;;;;;6.75;1.02;;;17.10;99.90;;;;;;5016199;28;20041;-64
2022/07/26 06:21:09;;;;;;;4.28;0.90;;;17.10;99.90;;;;;;5019754;28;20450;-63
2022/07/26 06:23:35;;;;;;;6.70;1.20;;;17.10;99.90;;;;;;5016190;28;20563;-65
2022/07/26 06:26:02;;;;;;;4.78;1.05;;;17.10;99.90;;;;;;5016727;28;20041;-63
2022/07/26 06:28:27;;;;;;;5.32;1.33;;;17.10;99.90;;;;;;5022372;28;20046;-63
2022/07/26 06:30:53;;;;;;;5.28;0.90;;;17.20;99.90;;;;;;5019091;28;20618;-64
2022/07/26 06:33:19;;;;;;;7.30;1.17;;;17.30;99.90;;;;;;5016433;28;20029;-63
2022/07/26 06:35:44;;;;;;;6.25;1.25;;;17.30;99.90;;;;;;5022290;28;20368;-63
2022/07/26 06:38:10;;;;;;;5.82;1.60;;;17.40;99.90;;;;;;5010925;28;20045;-62
2022/07/26 06:40:36;;;;;;;6.53;1.48;;;17.40;99.90;;;;;;5013974;28;20112;-66
2022/07/26 06:43:02;;;;;;;4.28;1.10;;;17.50;99.90;;;;;;5011990;28;20295;-62
2022/07/26 06:45:29;;;;;;;4.32;0.95;;;17.50;99.90;;;;;;5011300;28;20049;-63
2022/07/26 06:47:55;;;;;;;13.68;1.58;;;17.60;99.90;;;;;;5001162;28;20052;-65
2022/07/26 06:50:22;;;;;;;5.22;1.13;;;17.70;99.90;;;;;;4998819;28;20041;-63
2022/07/26 06:52:48;;;;;;;7.80;1.30;;;17.80;99.90;;;;;;5012444;28;20037;-63
2022/07/26 06:55:14;;;;;;;5.88;1.10;;;17.80;99.90;;;;;;5009641;28;20052;-63
2022/07/26 06:57:40;;;;;;;6.80;1.83;;;17.90;99.90;;;;;;5015270;28;20049;-62
2022/07/26 07:00:07;;;;;;;4.53;1.20;;;17.90;99.90;;;;;;5010584;28;20124;-62
2022/07/26 07:02:34;;;;;;;4.05;1.13;;;17.90;99.90;;;;;;5014960;28;20049;-62
2022/07/26 07:05:00;;;;;;;4.38;1.10;;;17.90;99.90;;;;;;5011775;28;20128;-61
2022/07/26 07:07:26;;;;;;;7.63;1.63;;;17.90;99.90;;;;;;5014940;28;20048;-63
2022/07/26 07:09:52;;;;;;;4.43;1.13;;;17.90;99.90;;;;;;5017401;28;20037;-63
2022/07/26 07:12:17;;;;;;;10.48;1.70;;;17.90;99.90;;;;;;5017622;28;20053;-62
2022/07/26 07:14:43;;;;;;;11.32;1.77;;;17.90;99.90;;;;;;5013334;28;20397;-62
2022/07/26 07:17:09;;;;;;;6.68;1.83;;;17.80;99.90;;;;;;5016534;28;20044;-62
2022/07/26 07:19:36;;;;;;;7.72;2.00;;;17.80;99.90;;;;;;5015702;28;20041;-65
2022/07/26 07:22:03;;;;;;;9.07;1.83;;;17.70;99.90;;;;;;5016704;28;20056;-63
2022/07/26 07:24:28;;;;;;;6.13;1.70;;;17.40;99.90;;;;;;5021496;28;20629;-62
2022/07/26 07:27:00;;;;;;;4.63;1.20;;;17.20;99.90;;;;;;5006085;28;20041;-63
2022/07/26 07:29:25;;;;;;;5.30;1.42;;;17.20;99.90;;;;;;5009486;28;20412;-62
2022/07/26 07:31:51;;;;;;;9.20;1.55;;;17.20;99.90;;;;;;5011365;28;20037;-63
2022/07/26 07:34:17;;;;;;;7.95;1.98;;;17.10;99.90;;;;;;5016959;28;20079;-61
2022/07/26 07:36:43;;;;;;;9.30;1.60;;;17.10;99.90;;;;;;5022474;28;20473;-61
2022/07/26 07:39:09;;;;;;;9.18;2.42;;;17.10;99.90;;;;;;5018868;28;20053;-62
2022/07/26 07:41:37;;;;;;;6.55;1.48;;;17.10;99.90;;;;;;5015393;28;20317;-64
2022/07/26 07:44:06;;;;;;;8.57;1.85;;;17.20;99.90;;;;;;5019548;28;20069;-63
2022/07/26 07:46:31;;;;;;;7.13;1.60;;;17.20;99.90;;;;;;5022638;28;20054;-64
2022/07/26 07:48:58;;;;;;;5.57;2.05;;;17.30;99.90;;;;;;5019050;28;20042;-64
2022/07/26 07:51:25;;;;;;;6.30;1.50;;;17.40;99.90;;;;;;5023989;28;20041;-62
2022/07/26 07:53:54;;;;;;;11.48;2.38;;;17.50;99.90;;;;;;5025048;28;20044;-62
2022/07/26 07:56:20;;;;;;;9.05;1.88;;;17.60;99.90;;;;;;5019647;28;20106;-62
2022/07/26 07:58:46;;;;;;;8.40;1.55;;;17.60;99.90;;;;;;5013652;28;20546;-62
2022/07/26 08:01:12;;;;;;;6.20;1.63;;;17.70;99.90;;;;;;5022320;28;20041;-62
2022/07/26 08:03:37;;;;;;;3.33;1.23;;;17.70;99.90;;;;;;5015941;28;20049;-61
2022/07/26 08:06:05;;;;;;;11.73;2.38;;;17.80;99.90;;;;;;5026878;28;20123;-61
2022/07/26 08:08:31;;;;;;;12.55;3.15;;;17.90;99.90;;;;;;5032843;28;20400;-63
2022/07/26 08:10:57;;;;;;;9.90;2.78;;;17.80;99.90;;;;;;5025992;28;20053;-64
2022/07/26 08:13:23;;;;;;;11.45;1.83;;;17.90;99.90;;;;;;5019623;28;20285;-62
2022/07/26 08:15:53;;;;;;;7.22;1.63;;;17.90;99.90;;;;;;5011583;28;20091;-62
2022/07/26 08:18:20;;;;;;;8.13;1.80;;;18.00;99.90;;;;;;5017384;28;20493;-63
2022/07/26 08:20:46;;;;;;;8.18;1.55;;;18.00;99.90;;;;;;5022024;28;20048;-62
2022/07/26 08:23:12;;;;;;;13.60;1.90;;;17.90;99.90;;;;;;5023207;28;20033;-62
2022/07/26 08:25:38;;;;;;;7.28;1.50;;;18.00;99.90;;;;;;5014869;28;20512;-63
2022/07/26 08:28:04;;;;;;;7.15;1.50;;;18.00;99.90;;;;;;5022766;28;20045;-61
2022/07/26 08:30:33;;;;;;;7.53;1.50;;;18.20;99.90;;;;;;5017264;28;20034;-62
2022/07/26 08:32:59;;;;;;;11.23;2.67;;;18.30;99.90;;;;;;5023169;28;20041;-61
2022/07/26 08:35:25;;;;;;;11.90;2.55;;;18.30;99.90;;;;;;5018688;28;20038;-62
2022/07/26 08:37:51;;;;;;;9.95;2.55;;;18.30;99.90;;;;;;5022245;28;20185;-63
2022/07/26 08:40:17;;;;;;;11.00;2.90;;;18.30;99.90;;;;;;5023620;28;20048;-65
2022/07/26 08:42:53;;;;;;;13.25;2.58;;;18.10;99.90;;;;;;5020630;28;20041;-62
2022/07/26 08:45:26;;;;;;;14.23;3.22;;;18.00;99.90;;;;;;5025437;28;20048;-62
2022/07/26 08:47:52;;;;;;;7.88;2.17;;;17.80;99.90;;;;;;5016175;28;20428;-62
2022/07/26 08:50:18;;;;;;;9.13;2.10;;;17.80;99.90;;;;;;5020047;28;20034;-62
2022/07/26 08:52:44;;;;;;;11.55;2.10;;;17.70;99.90;;;;;;5017134;28;20463;-62
2022/07/26 08:55:14;;;;;;;9.10;2.30;;;17.80;99.90;;;;;;5021798;28;20198;-61
2022/07/26 08:57:40;;;;;;;9.05;2.20;;;17.80;99.90;;;;;;5024060;28;20037;-61
2022/07/26 09:00:24;;;;;;;16.73;2.42;;;17.80;99.90;;;;;;5006483;28;20399;-64
2022/07/26 09:02:52;;;;;;;12.02;2.28;;;17.90;99.90;;;;;;5024472;28;20056;-61
2022/07/26 09:05:19;;;;;;;16.05;2.65;;;17.90;99.90;;;;;;5014147;28;20037;-63
2022/07/26 09:07:45;;;;;;;9.05;2.08;;;18.00;99.90;;;;;;5017359;28;20041;-61
2022/07/26 09:10:13;;;;;;;13.95;2.50;;;18.00;99.90;;;;;;5022322;28;20110;-61
2022/07/26 09:12:40;;;;;;;13.00;2.60;;;18.10;99.90;;;;;;5018926;28;20073;-62
2022/07/26 09:15:17;;;;;;;15.18;2.75;;;18.00;99.90;;;;;;5019815;28;20075;-63
2022/07/26 09:17:48;;;;;;;13.60;3.08;;;17.90;99.90;;;;;;5021975;28;20041;-61
2022/07/26 09:20:20;;;;;;;14.20;2.65;;;17.90;99.90;;;;;;5007810;28;20431;-62
2022/07/26 09:23:06;;;;;;;12.82;3.28;;;17.90;99.90;;;;;;5002412;28;20125;-63
2022/07/26 09:25:38;;;;;;;10.05;2.92;;;17.90;99.90;;;;;;4998284;28;20057;-62
2022/07/26 09:28:21;;;;;;;11.82;1.80;;;18.00;99.90;;;;;;5005788;28;20114;-62
2022/07/26 09:30:52;;;;;;;14.52;2.50;;;18.10;99.90;;;;;;5022254;28;20559;-61
2022/07/26 09:33:18;;;;;;;10.10;2.08;;;18.30;99.90;;;;;;5008624;28;20067;-64
2022/07/26 09:36:03;;;;;;;8.35;2.33;;;18.30;99.90;;;;;;5009540;28;20412;-63
2022/07/26 09:38:40;;;;;;;9.57;1.83;;;18.40;99.90;;;;;;5013101;28;20550;-65
2022/07/26 09:41:21;;;;;;;13.05;2.50;;;18.60;99.90;;;;;;5010350;28;20048;-62
2022/07/26 09:43:48;;;;;;;8.30;2.28;;;18.50;99.60;;;;;;5010766;28;20119;-63
2022/07/26 09:46:14;;;;;;;9.93;1.98;;;18.50;99.80;;;;;;5007875;28;20121;-61
2022/07/26 09:48:40;;;;;;;10.20;1.92;;;18.60;99.90;;;;;;5009549;28;20042;-62
2022/07/26 09:51:07;;;;;;;7.28;1.70;;;18.90;99.90;;;;;;5012601;28;20057;-64
2022/07/26 09:53:46;;;;;;;8.27;2.10;;;19.10;99.30;;;;;;5011139;28;20055;-63
2022/07/26 09:56:13;;;;;;;11.25;1.63;;;19.20;98.80;;;;;;5013807;28;20489;-63
2022/07/26 09:58:39;;;;;;;6.32;1.73;;;19.20;98.00;;;;;;5000845;28;20251;-65
2022/07/26 10:01:06;;;;;;;6.60;1.77;;;19.20;98.00;;;;;;5026873;28;20480;-63
2022/07/26 10:03:34;;;;;;;6.45;1.60;;;19.30;97.80;;;;;;5024567;28;20050;-63
2022/07/26 10:06:01;;;;;;;8.10;1.52;;;19.40;97.40;;;;;;5019765;28;20044;-63
2022/07/26 10:08:27;;;;;;;6.40;1.80;;;19.30;97.20;;;;;;4999154;28;20037;-62
2022/07/26 10:11:06;;;;;;;9.52;2.80;;;19.10;96.90;;;;;;5015271;28;20366;-62
2022/07/26 10:13:32;;;;;;;4.25;1.27;;;19.10;96.10;;;;;;5007150;28;22679;-61
2022/07/26 10:15:58;;;;;;;6.75;2.03;;;19.00;96.10;;;;;;5017304;28;20064;-61
2022/07/26 10:18:36;;;;;;;4.38;1.45;;;19.00;96.00;;;;;;5019321;28;20132;-65
2022/07/26 10:21:22;;;;;;;7.72;1.75;;;19.20;96.80;;;;;;5016815;28;20063;-65
2022/07/26 10:23:56;;;;;;;5.40;2.08;;;19.70;96.90;;;;;;5019053;28;20043;-64
2022/07/26 10:26:31;;;;;;;6.22;1.50;;;19.90;96.30;;;;;;5035920;22;20049;-67
2022/07/26 10:29:16;;;;;;;8.80;1.65;;;19.90;95.90;;;;;;5020384;28;20503;-69
2022/07/26 10:32:09;;;;;;;10.68;1.83;;;20.00;95.50;;;;;;5024399;28;20519;-68
2022/07/26 10:34:39;;;;;;;6.30;1.73;;;20.00;95.80;;;;;;5023290;28;20044;-68
2022/07/26 10:37:10;;;;;;;9.75;1.63;;;20.20;95.70;;;;;;5007304;28;20045;-65
2022/07/26 10:39:37;;;;;;;7.28;1.70;;;20.30;95.30;;;;;;5027409;28;20048;-66
2022/07/26 10:42:10;;;;;;;10.07;2.00;;;20.40;95.50;;;;;;5019238;28;20442;-64
2022/07/26 10:44:43;;;;;;;4.90;1.70;;;20.70;95.30;;;;;;5013732;28;20055;-67
2022/07/26 10:47:14;;;;;;;9.98;1.90;;;20.80;95.10;;;;;;4997559;28;20041;-66
2022/07/26 10:49:56;;;;;;;9.13;2.30;;;21.10;94.40;;;;;;5015761;28;20555;-64
2022/07/26 10:52:29;;;;;;;11.68;2.97;;;21.40;94.30;;;;;;5029963;28;20311;-69
2022/07/26 10:55:02;;;;;;;6.47;1.48;;;21.20;93.80;;;;;;5023560;28;20303;-64
2022/07/26 10:57:57;;;;;;;7.43;2.10;;;20.90;93.40;;;;;;5012694;28;20028;-67
2022/07/26 11:00:25;;;;;;;9.00;1.98;;;21.00;93.70;;;;;;4996428;28;20077;-71
2022/07/26 11:02:56;;;;;;;5.80;1.55;;;20.80;93.50;;;;;;5014896;28;20053;-66
2022/07/26 11:05:28;;;;;;;5.63;1.05;;;20.70;94.00;;;;;;5026483;28;20562;-67
2022/07/26 11:07:56;;;;;;;6.85;1.65;;;20.80;94.40;;;;;;5018396;28;20391;-65
2022/07/26 11:10:36;;;;;;;6.60;1.70;;;20.80;94.10;;;;;;5022450;28;20049;-68
2022/07/26 11:13:10;;;;;;;7.47;1.70;;;20.60;93.00;;;;;;5017112;28;20127;-65
2022/07/26 11:15:37;;;;;;;;;;;20.20;93.70;;;;;;5021301;28;20210;-63
2022/07/26 11:18:10;;;;;;;7.82;1.70;;;20.00;93.30;;;;;;5002618;28;19916;-68
2022/07/26 11:20:37;;;;;;;4.72;1.55;;;19.90;93.20;;;;;;5016288;28;20045;-67
2022/07/26 11:23:02;;;;;;;7.40;1.65;;;19.80;93.90;;;;;;5034728;28;20045;-65
2022/07/26 11:25:28;;;;;;;5.65;1.55;;;19.80;94.30;;;;;;5020451;28;20563;-66
2022/07/26 11:28:01;;;;;;;6.13;1.40;;;19.80;94.30;;;;;;5033910;28;20044;-66
2022/07/26 11:30:28;;;;;;;5.00;1.70;;;19.90;94.40;;;;;;5035564;28;20419;-63
2022/07/26 11:32:57;;;;;;;9.40;1.90;;;20.00;94.40;;;;;;5024172;28;20055;-70
2022/07/26 11:35:24;;;;;;;8.50;1.58;;;20.10;94.50;;;;;;5040291;28;20500;-62
2022/07/26 11:38:00;;;;;;;7.63;1.50;;;20.00;94.10;;;;;;5042366;28;20091;-66
2022/07/26 11:40:46;;;;;;;6.25;1.27;;;20.20;94.00;;;;;;5020150;28;20118;-64
2022/07/26 11:43:12;;;;;;;4.32;1.23;;;20.40;93.80;;;;;;5009096;28;20056;-65
2022/07/26 11:45:39;;;;;;;5.90;1.50;;;20.30;94.00;;;;;;5016352;28;20102;-64
2022/07/26 11:48:05;;;;;;;6.45;1.83;;;20.30;93.90;;;;;;5017945;28;20186;-71
2022/07/26 11:50:31;;;;;;;7.68;2.55;;;20.10;93.70;;;;;;5017326;28;20052;-64
2022/07/26 11:52:57;;;;;;;5.93;1.30;;;20.00;94.60;;;;;;5038019;28;20107;-66
2022/07/26 11:55:28;;;;;;;6.30;1.33;;;20.10;94.90;;;;;;5016218;28;20037;-69
2022/07/26 11:57:54;;;;;;;6.22;1.70;;;20.40;94.50;;;;;;5025548;28;20041;-63
2022/07/26 12:00:22;;;;;;;9.25;1.67;;;20.60;94.60;;;;;;5023458;28;20052;-63
2022/07/26 12:02:48;;;;;;;6.43;1.58;;;20.50;94.30;;;;;;5020141;28;20132;-66
2022/07/26 12:05:21;;;;;;;8.20;1.90;;;20.60;94.20;;;;;;5026795;28;20071;-67
2022/07/26 12:08:02;;;;;;;6.65;1.50;;;20.80;94.10;;;;;;5041425;28;20124;-64
2022/07/26 12:10:28;;;;;;;6.13;1.30;;;20.50;94.30;;;;;;5036775;28;20474;-69
2022/07/26 12:13:11;;;;;;;9.55;1.75;;;20.40;94.60;;;;;;5021766;28;20120;-66
2022/07/26 12:15:51;;;;;;;8.55;1.75;;;20.30;94.80;;;;;;4999769;28;20068;-68
2022/07/26 12:18:28;;;;;;;7.10;1.70;;;20.20;94.90;;;;;;5032768;28;20387;-64
2022/07/26 12:21:03;;;;;;;5.85;1.52;;;20.00;94.30;;;;;;5009941;28;20200;-63
2022/07/26 12:23:44;;;;;;;8.02;2.10;;;20.20;94.80;;;;;;5009900;28;20041;-70
2022/07/26 12:26:22;;;;;;;5.47;1.60;;;20.20;93.80;;;;;;5031377;28;20090;-66
2022/07/26 12:28:48;;;;;;;7.75;1.63;;;20.10;94.00;;;;;;5016805;28;20505;-65
2022/07/26 12:31:23;;;;;;;8.55;1.73;;;20.10;94.20;;;;;;5038603;28;20036;-64
2022/07/26 12:33:49;;;;;;;6.25;1.48;;;20.50;94.20;;;;;;5028650;28;20045;-71
2022/07/26 12:36:20;;;;;;;5.18;1.40;;;20.80;94.20;;;;;;5014162;28;20036;-68
2022/07/26 12:38:46;;;;;;;9.55;2.17;;;21.10;94.00;;;;;;5007239;28;20045;-69
2022/07/26 12:41:29;;;;;;;6.93;1.60;;;21.10;93.30;;;;;;5011822;28;20044;-64
2022/07/26 12:43:55;;;;;;;5.63;1.20;;;21.20;93.70;;;;;;5004573;28;20287;-72
2022/07/26 12:46:20;;;;;;;6.93;1.40;;;21.20;92.70;;;;;;5028470;28;20319;-70
2022/07/26 12:48:46;;;;;;;6.22;1.48;;;20.90;92.60;;;;;;5013041;28;20033;-63